Time;durP1;ratioP1;P1;durP2;ratioP2;P2;SDS_P1;SDS_P2;PMS_P1;PMS_P2;Temp;Humidity;BMP_temperature;BMP_pressure;BME280_temperature;BME280_humidity;BME280_pressure;Samples;Min_cycle;Max_cycle;Signal;HPM_P1;HPM_P2
2022/12/10 00:01:07;;;;;;;9.73;7.90;;;0.00;99.90;;;;;;5087868;28;20305;-73
2022/12/10 00:03:35;;;;;;;9.87;7.93;;;0.00;99.90;;;;;;5088488;28;20298;-73
2022/12/10 00:06:03;;;;;;;9.73;7.90;;;0.00;99.90;;;;;;5103773;28;20229;-73
2022/12/10 00:08:30;;;;;;;11.17;8.37;;;0.00;99.90;;;;;;5108597;28;20293;-74
2022/12/10 00:10:57;;;;;;;9.17;8.23;;;0.10;99.90;;;;;;5108374;28;20250;-74
2022/12/10 00:13:24;;;;;;;8.93;8.03;;;0.10;99.90;;;;;;5108695;28;20683;-71
2022/12/10 00:15:51;;;;;;;9.43;7.90;;;0.10;99.90;;;;;;5108304;28;20216;-71
2022/12/10 00:18:18;;;;;;;11.20;8.43;;;0.00;99.90;;;;;;5107747;28;20226;-71
2022/12/10 00:20:46;;;;;;;8.80;7.83;;;0.10;99.90;;;;;;5102477;28;20388;-73
2022/12/10 00:23:13;;;;;;;9.70;8.23;;;0.10;99.90;;;;;;5107933;28;20277;-73
2022/12/10 00:25:40;;;;;;;10.97;8.73;;;0.00;99.90;;;;;;5108116;28;20285;-73
2022/12/10 00:28:07;;;;;;;10.00;8.10;;;0.00;99.90;;;;;;5108562;28;20293;-73
2022/12/10 00:30:34;;;;;;;10.23;8.53;;;0.00;99.90;;;;;;5108568;28;20284;-72
2022/12/10 00:33:01;;;;;;;11.07;8.60;;;0.00;99.90;;;;;;5107575;28;20288;-71
2022/12/10 00:35:28;;;;;;;10.33;8.10;;;0.00;99.90;;;;;;5108000;28;20220;-71
2022/12/10 00:37:56;;;;;;;9.87;7.40;;;0.00;99.90;;;;;;5107873;28;20692;-71
2022/12/10 00:40:23;;;;;;;10.83;8.57;;;0.00;99.90;;;;;;5107763;28;20325;-71
2022/12/10 00:42:50;;;;;;;10.43;7.87;;;-0.10;99.90;;;;;;5108164;28;20202;-71
2022/12/10 00:45:17;;;;;;;10.17;8.23;;;0.00;99.90;;;;;;5108297;28;20300;-71
2022/12/10 00:47:43;;;;;;;10.57;8.57;;;-0.10;99.90;;;;;;5092683;28;20681;-71
2022/12/10 00:50:10;;;;;;;12.47;8.00;;;0.00;99.90;;;;;;5103290;28;20699;-71
2022/12/10 00:52:37;;;;;;;10.77;8.27;;;-0.10;99.90;;;;;;5093153;28;20692;-72
2022/12/10 00:55:06;;;;;;;11.27;8.27;;;-0.10;99.90;;;;;;5087581;28;20286;-70
2022/12/10 00:57:33;;;;;;;10.43;8.03;;;-0.10;99.90;;;;;;5087539;28;20317;-70
2022/12/10 01:00:00;;;;;;;10.13;8.10;;;-0.10;99.90;;;;;;5087583;28;20360;-70
2022/12/10 01:02:27;;;;;;;8.70;7.40;;;-0.10;99.90;;;;;;5087681;28;20631;-70
2022/12/10 01:04:54;;;;;;;9.73;8.10;;;-0.10;99.90;;;;;;5087581;28;20210;-70
2022/12/10 01:07:21;;;;;;;10.73;7.90;;;-0.10;99.90;;;;;;5093669;28;20226;-70
2022/12/10 01:09:48;;;;;;;10.20;7.90;;;-0.10;99.90;;;;;;5107957;28;20198;-70
2022/12/10 01:12:16;;;;;;;8.63;7.73;;;-0.10;99.90;;;;;;5107459;28;20630;-70
2022/12/10 01:14:43;;;;;;;10.80;7.93;;;-0.10;99.90;;;;;;5107475;28;20317;-70
2022/12/10 01:17:10;;;;;;;9.17;7.57;;;-0.20;99.90;;;;;;5107215;28;20692;-71
2022/12/10 01:19:37;;;;;;;8.50;7.57;;;-0.20;99.90;;;;;;5107689;28;20639;-73
2022/12/10 01:22:04;;;;;;;10.73;8.63;;;-0.20;99.90;;;;;;5107505;28;20241;-72
2022/12/10 01:24:31;;;;;;;9.27;7.53;;;-0.20;99.90;;;;;;5107541;28;20288;-72
2022/12/10 01:26:59;;;;;;;9.23;7.83;;;-0.20;99.90;;;;;;5107355;28;20301;-72
2022/12/10 01:29:27;;;;;;;8.90;7.60;;;-0.20;99.90;;;;;;5107834;28;20289;-72
2022/12/10 01:31:56;;;;;;;9.30;7.83;;;-0.20;99.90;;;;;;5110160;28;20293;-72
2022/12/10 01:34:24;;;;;;;8.17;7.37;;;-0.20;99.90;;;;;;5111721;28;20285;-71
2022/12/10 01:36:53;;;;;;;8.03;7.17;;;-0.20;99.90;;;;;;5111514;28;20234;-71
2022/12/10 01:39:21;;;;;;;9.77;7.90;;;-0.20;99.90;;;;;;5110874;28;20206;-73
2022/12/10 01:41:50;;;;;;;9.00;7.77;;;-0.20;99.90;;;;;;5111241;28;20326;-73
2022/12/10 01:44:54;;;;;;;10.20;7.93;;;-0.20;99.90;;;;;;5092840;28;20230;-73
2022/12/10 01:47:22;;;;;;;8.87;7.03;;;-0.30;99.90;;;;;;5095571;28;20297;-73
2022/12/10 01:49:49;;;;;;;10.17;7.13;;;-0.30;99.90;;;;;;5098261;28;20232;-72
2022/12/10 01:52:16;;;;;;;9.53;7.57;;;-0.30;99.90;;;;;;5111395;28;20237;-72
2022/12/10 01:54:45;;;;;;;8.43;7.10;;;-0.30;99.90;;;;;;5111120;28;20244;-72
2022/12/10 01:57:15;;;;;;;9.53;8.07;;;-0.30;99.90;;;;;;5110590;28;20313;-73
2022/12/10 01:59:45;;;;;;;9.60;7.47;;;-0.30;99.90;;;;;;5102394;28;20695;-72
2022/12/10 02:02:18;;;;;;;10.27;7.80;;;-0.30;99.90;;;;;;5090756;28;20230;-72
2022/12/10 02:04:57;;;;;;;7.93;7.10;;;-0.30;99.90;;;;;;5106209;28;20198;-72
2022/12/10 02:07:32;;;;;;;8.73;7.57;;;-0.30;99.90;;;;;;5111122;28;20534;-72
2022/12/10 02:10:05;;;;;;;7.70;6.90;;;-0.30;99.90;;;;;;5110291;28;20211;-72
2022/12/10 02:12:38;;;;;;;7.90;6.80;;;-0.30;99.90;;;;;;5108896;28;20294;-72
2022/12/10 02:15:11;;;;;;;9.47;7.30;;;-0.30;99.90;;;;;;5097240;28;20199;-72
2022/12/10 02:17:41;;;;;;;8.27;7.30;;;-0.30;99.90;;;;;;5090513;28;20235;-72
2022/12/10 02:20:15;;;;;;;7.40;6.60;;;-0.30;99.90;;;;;;5107574;28;20226;-72
2022/12/10 02:22:47;;;;;;;9.07;7.60;;;-0.30;99.90;;;;;;5110977;28;20282;-73
2022/12/10 02:25:16;;;;;;;8.07;7.00;;;-0.40;99.90;;;;;;5110149;28;20222;-72
2022/12/10 02:27:53;;;;;;;7.77;6.97;;;-0.30;99.90;;;;;;5110327;28;20206;-72
2022/12/10 02:30:21;;;;;;;8.03;6.90;;;-0.40;99.90;;;;;;5110583;28;20283;-70
2022/12/10 02:32:50;;;;;;;8.50;7.40;;;-0.40;99.90;;;;;;5110683;28;20289;-71
2022/12/10 02:35:23;;;;;;;9.23;7.43;;;-0.40;99.90;;;;;;5110075;28;20216;-71
2022/12/10 02:37:52;;;;;;;8.03;7.17;;;-0.40;99.90;;;;;;5110342;28;20245;-71
2022/12/10 02:40:23;;;;;;;7.87;7.07;;;-0.40;99.90;;;;;;5091731;28;20322;-71
2022/12/10 02:42:52;;;;;;;8.80;7.50;;;-0.40;99.90;;;;;;5103997;28;20290;-71
2022/12/10 02:45:22;;;;;;;7.33;6.63;;;-0.50;99.90;;;;;;5109601;28;21041;-71
2022/12/10 02:47:50;;;;;;;8.80;7.57;;;-0.40;99.90;;;;;;5110148;28;20285;-71
2022/12/10 02:50:20;;;;;;;7.30;6.60;;;-0.40;99.90;;;;;;5109850;28;20296;-73
2022/12/10 02:52:48;;;;;;;7.30;6.60;;;-0.50;99.90;;;;;;5110029;28;20644;-73
2022/12/10 02:55:15;;;;;;;8.73;7.13;;;-0.50;99.90;;;;;;5106775;28;20677;-73
2022/12/10 02:57:54;;;;;;;9.37;7.23;;;-0.50;99.90;;;;;;5093463;28;20692;-73
2022/12/10 03:00:23;;;;;;;7.77;7.00;;;-0.50;99.90;;;;;;5099715;28;20732;-73
2022/12/10 03:03:05;;;;;;;8.03;7.10;;;-0.50;99.90;;;;;;5089736;28;20249;-73
2022/12/10 03:05:37;;;;;;;8.00;7.00;;;-0.50;99.90;;;;;;5104102;28;20281;-73
2022/12/10 03:08:10;;;;;;;8.50;7.47;;;-0.50;99.90;;;;;;5097678;28;20627;-73
2022/12/10 03:10:44;;;;;;;8.40;7.13;;;-0.50;99.90;;;;;;5089370;28;20211;-73
2022/12/10 03:13:15;;;;;;;8.53;7.43;;;-0.40;99.90;;;;;;5099573;28;20229;-73
2022/12/10 03:15:46;;;;;;;8.20;7.33;;;-0.40;99.90;;;;;;5101227;28;20197;-73
2022/12/10 03:18:16;;;;;;;8.23;7.27;;;-0.40;99.90;;;;;;5109221;28;20337;-71
2022/12/10 03:20:46;;;;;;;8.20;7.40;;;-0.40;99.90;;;;;;5099416;28;20298;-71
2022/12/10 03:23:19;;;;;;;8.30;7.50;;;-0.40;99.90;;;;;;5106124;28;20304;-71
2022/12/10 03:25:48;;;;;;;8.40;7.20;;;-0.40;99.90;;;;;;5109659;28;20221;-71
2022/12/10 03:28:16;;;;;;;8.40;7.20;;;-0.40;99.90;;;;;;5109506;28;20297;-71
2022/12/10 03:30:46;;;;;;;8.40;7.50;;;-0.40;99.90;;;;;;5109550;28;20635;-71
2022/12/10 03:33:14;;;;;;;8.83;7.73;;;-0.40;99.90;;;;;;5108721;28;20282;-71
2022/12/10 03:35:42;;;;;;;9.53;8.10;;;-0.40;99.90;;;;;;5089069;28;20284;-71
2022/12/10 03:38:10;;;;;;;8.97;8.03;;;-0.40;99.90;;;;;;5097494;28;20325;-71
2022/12/10 03:40:37;;;;;;;8.60;7.70;;;-0.40;99.90;;;;;;5106903;28;20760;-71
2022/12/10 03:43:04;;;;;;;9.87;8.47;;;-0.40;99.90;;;;;;5088658;28;20651;-71
2022/12/10 03:45:31;;;;;;;9.63;8.17;;;-0.40;99.90;;;;;;5088765;28;20246;-71
2022/12/10 03:47:59;;;;;;;8.87;7.83;;;-0.40;99.90;;;;;;5088563;28;20279;-71
2022/12/10 03:50:26;;;;;;;9.83;7.13;;;-0.40;99.90;;;;;;5096992;28;20260;-71
2022/12/10 03:52:53;;;;;;;10.07;7.87;;;-0.40;99.90;;;;;;5094548;28;20310;-71
2022/12/10 03:55:20;;;;;;;9.33;8.27;;;-0.40;99.90;;;;;;5087977;28;20669;-72
2022/12/10 03:57:47;;;;;;;9.30;8.27;;;-0.40;99.90;;;;;;5108465;28;20325;-72
2022/12/10 04:00:19;;;;;;;8.80;7.90;;;-0.40;99.90;;;;;;5108290;28;20280;-72
2022/12/10 04:02:46;;;;;;;10.00;7.83;;;-0.30;99.90;;;;;;5109044;28;20233;-72
2022/12/10 04:05:15;;;;;;;10.80;8.13;;;-0.30;99.90;;;;;;5088884;28;20626;-71
2022/12/10 04:07:45;;;;;;;9.60;8.17;;;-0.40;99.90;;;;;;5108706;28;20629;-72
2022/12/10 04:10:12;;;;;;;10.07;8.20;;;-0.40;99.90;;;;;;5108246;28;20284;-72
2022/12/10 04:12:39;;;;;;;9.10;8.20;;;-0.30;99.90;;;;;;5108835;28;20252;-72
2022/12/10 04:17:52;;;;;;;10.37;8.40;;;-0.30;99.90;;;;;;5088186;28;20230;-71
2022/12/10 04:28:33;;;;;;;9.90;8.50;;;-0.30;99.90;;;;;;5108572;28;20310;-72
2022/12/10 04:31:00;;;;;;;9.90;8.20;;;-0.30;99.90;;;;;;5108244;28;20677;-72
2022/12/10 04:33:27;;;;;;;11.13;8.50;;;-0.30;99.90;;;;;;5108177;28;20214;-72
2022/12/10 04:35:55;;;;;;;9.13;8.13;;;-0.30;99.90;;;;;;5108653;28;20210;-72
2022/12/10 04:38:22;;;;;;;11.43;8.83;;;-0.30;99.90;;;;;;5093880;28;20318;-72
2022/12/10 04:40:49;;;;;;;10.63;8.50;;;-0.30;99.90;;;;;;5087501;28;20295;-72
2022/12/10 04:43:15;;;;;;;9.07;7.73;;;-0.30;99.90;;;;;;5087772;28;20302;-72
2022/12/10 04:45:43;;;;;;;9.63;8.10;;;-0.30;99.90;;;;;;5090265;28;20297;-73
2022/12/10 04:48:09;;;;;;;9.50;7.93;;;-0.30;99.90;;;;;;5095917;28;20217;-72
2022/12/10 04:50:36;;;;;;;9.00;7.87;;;-0.30;99.90;;;;;;5097638;28;20249;-72
2022/12/10 04:53:05;;;;;;;8.67;7.77;;;-0.30;99.90;;;;;;5108375;28;20281;-72
2022/12/10 04:55:31;;;;;;;10.93;8.47;;;-0.40;99.90;;;;;;5108120;28;20207;-73
2022/12/10 04:57:58;;;;;;;11.70;8.37;;;-0.40;99.90;;;;;;5097388;28;20222;-73
2022/12/10 05:00:25;;;;;;;9.87;8.03;;;-0.40;99.90;;;;;;5098566;28;20230;-72
2022/12/10 05:02:52;;;;;;;10.57;8.43;;;-0.40;99.90;;;;;;5107786;28;20229;-73
2022/12/10 05:05:19;;;;;;;8.80;7.90;;;-0.40;99.90;;;;;;5107507;28;21114;-73
2022/12/10 05:07:46;;;;;;;9.87;7.70;;;-0.30;99.90;;;;;;5108068;28;20626;-73
2022/12/10 05:10:14;;;;;;;8.73;7.83;;;-0.30;99.90;;;;;;5107439;28;20617;-73
2022/12/10 05:12:41;;;;;;;8.33;7.30;;;-0.10;99.90;;;;;;5107906;28;20249;-73
2022/12/10 05:15:09;;;;;;;10.67;8.17;;;-0.10;99.90;;;;;;5107744;28;20311;-73
2022/12/10 05:17:36;;;;;;;9.03;8.07;;;-0.10;99.90;;;;;;5107457;28;20742;-72
2022/12/10 05:20:03;;;;;;;8.77;7.83;;;-0.10;99.90;;;;;;5107655;28;20328;-72
2022/12/10 05:25:16;;;;;;;9.70;8.37;;;-0.20;99.90;;;;;;5107080;28;20300;-72
2022/12/10 05:27:43;;;;;;;10.07;8.10;;;-0.20;99.90;;;;;;5107334;28;20711;-72
2022/12/10 05:30:11;;;;;;;8.90;8.00;;;-0.20;99.90;;;;;;5107625;28;20216;-72
2022/12/10 05:32:38;;;;;;;9.50;8.53;;;-0.20;99.90;;;;;;5107569;28;20286;-72
2022/12/10 05:35:06;;;;;;;8.97;8.07;;;-0.20;99.90;;;;;;5098152;28;20289;-72
2022/12/10 05:37:33;;;;;;;9.97;8.00;;;-0.20;99.90;;;;;;5098462;28;20195;-72
2022/12/10 05:40:00;;;;;;;10.00;8.57;;;-0.30;99.90;;;;;;5086876;28;20676;-72
2022/12/10 05:42:29;;;;;;;10.10;8.43;;;-0.30;99.90;;;;;;5085555;28;20298;-72
2022/12/10 05:44:56;;;;;;;10.23;8.50;;;-0.30;99.90;;;;;;5097467;28;20221;-72
2022/12/10 05:47:23;;;;;;;10.37;8.70;;;-0.30;99.90;;;;;;5101747;28;20578;-72
2022/12/10 05:49:50;;;;;;;9.60;8.37;;;-0.30;99.90;;;;;;5100359;28;20203;-72
2022/12/10 05:52:17;;;;;;;9.53;8.27;;;-0.30;99.90;;;;;;5087018;28;20203;-73
2022/12/10 05:54:44;;;;;;;9.30;8.10;;;-0.30;99.90;;;;;;5086860;28;20234;-73
2022/12/10 05:57:11;;;;;;;9.63;8.60;;;-0.30;99.90;;;;;;5101895;28;20720;-73
2022/12/10 05:59:39;;;;;;;9.40;8.40;;;-0.30;99.90;;;;;;5107133;28;20317;-72
2022/12/10 06:02:06;;;;;;;11.97;8.37;;;-0.30;99.90;;;;;;5106395;28;20748;-73
2022/12/10 06:04:33;;;;;;;9.50;8.03;;;-0.30;99.90;;;;;;5107137;28;20297;-72
2022/12/10 06:07:00;;;;;;;10.27;8.43;;;-0.30;99.90;;;;;;5107047;28;20198;-73
2022/12/10 06:09:26;;;;;;;9.73;8.53;;;-0.30;99.90;;;;;;5095474;28;20286;-73
2022/12/10 06:11:53;;;;;;;10.00;8.60;;;-0.30;99.90;;;;;;5097576;28;20454;-73
2022/12/10 06:14:20;;;;;;;11.20;9.23;;;-0.30;99.90;;;;;;5107299;28;20212;-73
2022/12/10 06:16:48;;;;;;;11.30;8.60;;;-0.30;99.90;;;;;;5107073;28;20268;-73
2022/12/10 06:19:15;;;;;;;9.97;8.97;;;-0.30;99.90;;;;;;5109666;28;20229;-73
2022/12/10 06:21:42;;;;;;;10.90;8.70;;;-0.30;99.90;;;;;;5110329;28;20586;-73
2022/12/10 06:24:10;;;;;;;10.67;9.10;;;-0.30;99.90;;;;;;5110579;28;20317;-72
2022/12/10 06:26:37;;;;;;;9.23;8.03;;;-0.40;99.90;;;;;;5104478;28;20221;-73
2022/12/10 06:29:05;;;;;;;11.20;9.37;;;-0.40;99.90;;;;;;5096013;28;20202;-73
2022/12/10 06:31:32;;;;;;;9.83;8.43;;;-0.30;99.90;;;;;;5110290;28;20673;-72
2022/12/10 06:34:00;;;;;;;11.97;9.70;;;-0.40;99.90;;;;;;5091582;28;20302;-73
2022/12/10 06:36:27;;;;;;;12.43;8.70;;;-0.40;99.90;;;;;;5090249;28;20245;-73
2022/12/10 06:38:54;;;;;;;10.07;8.70;;;-0.30;99.90;;;;;;5089865;28;20321;-73
2022/12/10 06:41:21;;;;;;;10.37;8.90;;;-0.30;99.90;;;;;;5101517;28;20273;-73
2022/12/10 06:43:48;;;;;;;12.03;9.03;;;-0.30;99.90;;;;;;5109311;28;20210;-73
2022/12/10 06:46:17;;;;;;;9.53;8.53;;;-0.30;99.90;;;;;;5108000;28;20266;-73
2022/12/10 06:48:44;;;;;;;9.57;8.43;;;-0.30;99.90;;;;;;5093375;28;20213;-73
2022/12/10 06:51:13;;;;;;;9.57;8.53;;;-0.30;99.90;;;;;;5095368;28;20558;-74
2022/12/10 06:53:41;;;;;;;9.17;7.93;;;-0.30;99.90;;;;;;5107149;28;20292;-74
2022/12/10 06:56:13;;;;;;;8.87;7.97;;;-0.30;99.90;;;;;;5092218;28;20213;-74
2022/12/10 06:58:40;;;;;;;9.43;8.13;;;-0.30;99.90;;;;;;5089909;28;20245;-74
2022/12/10 07:01:09;;;;;;;8.57;7.67;;;-0.30;99.90;;;;;;5089961;28;20199;-72
2022/12/10 07:03:36;;;;;;;8.37;7.53;;;-0.30;99.90;;;;;;5089961;28;20218;-72
2022/12/10 07:06:08;;;;;;;9.67;7.43;;;-0.30;99.90;;;;;;5098021;27;20256;-73
2022/12/10 07:08:37;;;;;;;8.87;7.23;;;-0.30;99.90;;;;;;5107918;28;20281;-72
2022/12/10 07:11:05;;;;;;;7.20;6.50;;;-0.30;99.90;;;;;;5121966;27;20205;-72
2022/12/10 07:13:32;;;;;;;7.17;6.50;;;-0.30;99.90;;;;;;5111427;27;20207;-72
2022/12/10 07:15:59;;;;;;;7.67;6.97;;;-0.30;99.90;;;;;;5089833;28;20285;-72
2022/12/10 07:18:27;;;;;;;7.30;6.60;;;-0.30;99.90;;;;;;5089710;28;20254;-74
2022/12/10 07:20:54;;;;;;;7.27;6.57;;;-0.30;99.90;;;;;;5109409;28;20316;-72
2022/12/10 07:23:21;;;;;;;7.30;6.53;;;-0.30;99.90;;;;;;5109622;28;20255;-72
2022/12/10 07:25:49;;;;;;;7.33;6.47;;;-0.30;99.90;;;;;;5106653;28;20306;-72
2022/12/10 07:28:16;;;;;;;7.20;6.43;;;-0.30;99.90;;;;;;5088487;28;20217;-72
2022/12/10 07:30:43;;;;;;;6.97;6.27;;;-0.30;99.90;;;;;;5089150;28;20581;-72
2022/12/10 07:33:10;;;;;;;7.93;7.13;;;-0.30;99.90;;;;;;5098017;28;20976;-73
2022/12/10 07:35:39;;;;;;;7.97;6.97;;;-0.20;99.90;;;;;;5109321;28;20210;-72
2022/12/10 07:38:06;;;;;;;6.50;5.90;;;-0.20;99.90;;;;;;5108797;28;20580;-72
2022/12/10 07:40:33;;;;;;;6.67;5.97;;;-0.20;99.90;;;;;;5108642;28;20300;-72
2022/12/10 07:43:01;;;;;;;6.80;6.20;;;-0.30;99.90;;;;;;5108921;28;20552;-73
2022/12/10 07:45:28;;;;;;;7.10;6.40;;;-0.20;99.90;;;;;;5100955;28;20265;-73
2022/12/10 07:47:55;;;;;;;5.90;5.40;;;-0.30;99.90;;;;;;5098811;28;20222;-71
2022/12/10 07:50:22;;;;;;;7.10;6.23;;;-0.20;99.90;;;;;;5108610;28;20267;-71
2022/12/10 07:52:49;;;;;;;6.53;5.93;;;-0.20;99.90;;;;;;5096259;28;20366;-71
2022/12/10 07:55:16;;;;;;;8.47;6.57;;;-0.10;99.90;;;;;;5088300;28;21118;-72
2022/12/10 07:57:43;;;;;;;7.50;6.73;;;-0.20;99.90;;;;;;5101104;28;20204;-72
2022/12/10 08:00:13;;;;;;;6.50;5.90;;;-0.20;99.90;;;;;;5108007;28;20230;-73
2022/12/10 08:02:40;;;;;;;6.80;6.10;;;-0.10;99.90;;;;;;5086920;28;20289;-72
2022/12/10 08:05:07;;;;;;;7.13;6.43;;;-0.10;99.90;;;;;;5093067;28;20715;-72
2022/12/10 08:07:34;;;;;;;6.90;6.33;;;-0.10;99.90;;;;;;5100925;28;20293;-73
2022/12/10 08:10:02;;;;;;;7.07;6.30;;;-0.10;99.90;;;;;;5102505;28;20285;-72
2022/12/10 08:12:28;;;;;;;7.53;6.83;;;-0.10;99.90;;;;;;5101065;28;20286;-72
2022/12/10 08:14:55;;;;;;;7.03;6.33;;;-0.10;99.90;;;;;;5086886;28;20298;-71
2022/12/10 08:17:24;;;;;;;6.77;6.13;;;-0.10;99.90;;;;;;5087170;28;20288;-72
2022/12/10 08:19:51;;;;;;;8.03;6.60;;;-0.10;99.90;;;;;;5100194;28;20329;-72
2022/12/10 08:22:18;;;;;;;7.23;5.80;;;-0.10;99.90;;;;;;5086225;28;20249;-73
2022/12/10 08:24:45;;;;;;;7.00;6.40;;;-0.10;99.90;;;;;;5086147;28;20285;-72
2022/12/10 08:27:12;;;;;;;6.90;6.20;;;0.00;99.90;;;;;;5086355;28;20245;-72
2022/12/10 08:29:39;;;;;;;6.27;5.70;;;0.00;99.90;;;;;;5088226;28;20252;-72
2022/12/10 08:32:06;;;;;;;7.07;6.37;;;0.00;99.90;;;;;;5089212;28;20283;-72
2022/12/10 08:34:35;;;;;;;7.10;6.40;;;0.00;99.90;;;;;;5102031;28;20301;-72
2022/12/10 08:37:02;;;;;;;6.87;6.27;;;0.10;99.90;;;;;;5097268;28;20688;-73
2022/12/10 08:39:29;;;;;;;7.00;6.40;;;0.10;99.90;;;;;;5106047;28;20316;-72
2022/12/10 08:41:56;;;;;;;6.73;6.10;;;0.10;99.90;;;;;;5104605;28;20289;-72
2022/12/10 08:44:23;;;;;;;6.97;6.27;;;0.10;99.90;;;;;;5093709;28;20210;-72
2022/12/10 08:46:49;;;;;;;6.70;6.10;;;0.10;99.90;;;;;;5103441;28;20309;-73
2022/12/10 08:49:16;;;;;;;6.40;5.90;;;0.10;99.90;;;;;;5085370;28;20305;-72
2022/12/10 08:51:45;;;;;;;8.53;6.57;;;0.10;99.90;;;;;;5103917;28;20206;-72
2022/12/10 08:54:12;;;;;;;6.40;5.80;;;0.20;99.90;;;;;;5106247;28;20204;-73
2022/12/10 08:56:40;;;;;;;6.97;6.37;;;0.20;99.90;;;;;;5105317;28;20269;-72
2022/12/10 08:59:07;;;;;;;6.43;5.93;;;0.20;99.90;;;;;;5105335;28;20244;-73
2022/12/10 09:01:34;;;;;;;7.80;6.17;;;0.20;99.90;;;;;;5105572;28;20294;-73
2022/12/10 09:04:01;;;;;;;7.53;6.30;;;0.20;99.90;;;;;;5105363;28;20708;-73
2022/12/10 09:06:30;;;;;;;7.50;6.80;;;0.20;99.90;;;;;;5098349;28;20678;-72
2022/12/10 09:08:58;;;;;;;6.40;5.90;;;0.20;99.90;;;;;;5085640;28;20466;-72
2022/12/10 09:11:27;;;;;;;6.57;5.97;;;0.20;99.90;;;;;;5085415;28;20253;-72
2022/12/10 09:13:55;;;;;;;6.23;5.73;;;0.20;99.90;;;;;;5084920;28;20238;-72
2022/12/10 09:16:27;;;;;;;6.87;6.27;;;0.20;99.90;;;;;;5085610;28;20272;-73
2022/12/10 09:18:54;;;;;;;7.13;6.17;;;0.20;99.90;;;;;;5092009;28;20288;-74
2022/12/10 09:21:21;;;;;;;6.73;6.13;;;0.30;99.90;;;;;;5100836;28;20741;-73
2022/12/10 09:23:50;;;;;;;6.30;5.80;;;0.30;99.90;;;;;;5105922;28;20197;-73
2022/12/10 09:26:20;;;;;;;6.37;5.77;;;0.30;99.90;;;;;;5105556;28;20206;-72
2022/12/10 09:28:48;;;;;;;6.30;5.80;;;0.30;99.90;;;;;;5104961;28;20301;-72
2022/12/10 09:31:17;;;;;;;6.57;5.97;;;0.30;99.90;;;;;;5097337;28;20292;-73
2022/12/10 09:33:44;;;;;;;6.03;5.57;;;0.30;99.90;;;;;;5099127;28;20260;-73
2022/12/10 09:36:13;;;;;;;6.30;5.80;;;0.30;99.90;;;;;;5085586;28;20248;-74
2022/12/10 09:38:41;;;;;;;5.87;5.47;;;0.30;99.90;;;;;;5094029;28;21107;-74
2022/12/10 09:41:32;;;;;;;6.63;6.07;;;0.30;99.90;;;;;;5105133;28;20316;-74
2022/12/10 09:44:06;;;;;;;6.53;5.97;;;0.30;99.90;;;;;;5100368;28;20280;-74
2022/12/10 09:46:45;;;;;;;6.30;5.73;;;0.30;99.90;;;;;;5091372;28;20284;-74
2022/12/10 09:49:21;;;;;;;6.33;5.73;;;0.30;99.90;;;;;;5085286;28;20318;-74
2022/12/10 09:51:48;;;;;;;6.20;5.70;;;0.30;99.90;;;;;;5099417;28;20289;-74
2022/12/10 09:54:19;;;;;;;6.70;6.10;;;0.30;99.90;;;;;;5088828;28;20298;-74
2022/12/10 09:56:50;;;;;;;6.03;5.43;;;0.30;99.90;;;;;;5088991;28;20286;-74
2022/12/10 09:59:21;;;;;;;7.57;6.67;;;0.30;99.90;;;;;;5088625;28;20195;-74
2022/12/10 10:01:57;;;;;;;7.03;5.97;;;0.30;99.90;;;;;;5088790;28;20261;-74
2022/12/10 10:04:24;;;;;;;6.10;5.50;;;0.40;99.90;;;;;;5105567;28;20970;-74
2022/12/10 10:06:51;;;;;;;6.43;5.93;;;0.40;99.90;;;;;;5109257;28;20656;-74
2022/12/10 10:09:19;;;;;;;6.63;6.03;;;0.40;99.90;;;;;;5108622;28;20248;-74
2022/12/10 10:11:48;;;;;;;6.07;5.57;;;0.50;99.90;;;;;;5101554;28;20246;-74
2022/12/10 10:14:20;;;;;;;6.60;6.07;;;0.50;99.90;;;;;;5103647;28;20198;-74
2022/12/10 10:16:50;;;;;;;6.70;6.10;;;0.50;99.90;;;;;;5088502;28;20230;-74
2022/12/10 10:19:21;;;;;;;6.63;6.03;;;0.60;99.90;;;;;;5088749;28;20842;-74
2022/12/10 10:21:50;;;;;;;7.03;6.43;;;0.60;99.90;;;;;;5108438;28;20741;-74
2022/12/10 10:24:19;;;;;;;6.50;5.90;;;0.60;99.90;;;;;;5108263;28;20556;-74
2022/12/10 10:26:48;;;;;;;7.03;6.43;;;0.60;99.90;;;;;;5108962;28;20222;-74
2022/12/10 10:29:19;;;;;;;6.80;6.20;;;0.60;99.90;;;;;;5094734;28;20194;-74
2022/12/10 10:31:46;;;;;;;6.70;6.10;;;0.60;99.90;;;;;;5088089;28;20206;-74
2022/12/10 10:34:17;;;;;;;6.77;6.17;;;0.60;99.90;;;;;;5090828;28;20835;-74
2022/12/10 10:36:45;;;;;;;7.07;6.47;;;0.60;99.90;;;;;;5108289;28;20696;-74
2022/12/10 10:39:26;;;;;;;6.63;6.03;;;0.60;99.90;;;;;;5088425;28;20264;-74
2022/12/10 10:41:57;;;;;;;6.77;6.17;;;0.60;99.90;;;;;;5108373;28;20305;-71
2022/12/10 10:44:27;;;;;;;7.53;6.83;;;0.70;99.90;;;;;;5108840;28;20229;-71
2022/12/10 10:46:57;;;;;;;7.10;6.50;;;0.70;99.90;;;;;;5106614;28;20629;-72
2022/12/10 10:49:26;;;;;;;7.13;6.43;;;0.70;99.90;;;;;;5089280;28;20289;-71
2022/12/10 10:51:58;;;;;;;7.80;7.10;;;0.70;99.90;;;;;;5099217;28;20294;-72
2022/12/10 10:54:35;;;;;;;7.57;6.70;;;0.70;99.90;;;;;;5087371;28;20890;-71
2022/12/10 10:57:12;;;;;;;7.90;7.20;;;0.70;99.90;;;;;;5087566;28;20216;-72
2022/12/10 10:59:40;;;;;;;7.53;6.80;;;0.70;99.90;;;;;;5090265;28;20302;-72
2022/12/10 11:02:20;;;;;;;7.10;6.50;;;0.70;99.90;;;;;;5098227;28;20241;-72
2022/12/10 11:04:49;;;;;;;7.33;6.63;;;0.70;99.90;;;;;;5086877;28;20773;-72
2022/12/10 11:07:22;;;;;;;7.50;6.87;;;0.70;99.90;;;;;;5088549;28;20242;-74
2022/12/10 11:09:50;;;;;;;7.13;6.47;;;0.70;99.90;;;;;;5105506;28;20289;-74
2022/12/10 11:12:40;;;;;;;7.20;6.53;;;0.70;99.90;;;;;;5087228;28;20323;-74
2022/12/10 11:15:33;;;;;;;8.13;6.53;;;0.70;99.90;;;;;;5088727;28;20230;-74
2022/12/10 11:18:02;;;;;;;8.63;7.83;;;0.80;99.90;;;;;;5087741;28;20229;-74
2022/12/10 11:20:31;;;;;;;8.83;7.93;;;0.80;99.90;;;;;;5095677;28;20333;-74
2022/12/10 11:23:00;;;;;;;8.37;7.63;;;0.70;99.90;;;;;;5092910;28;20243;-74
2022/12/10 11:25:40;;;;;;;8.20;7.43;;;0.70;99.90;;;;;;5090364;28;20263;-74
2022/12/10 11:28:23;;;;;;;8.70;7.90;;;0.70;99.90;;;;;;5107704;28;20197;-74
2022/12/10 11:30:57;;;;;;;10.10;7.90;;;0.70;99.90;;;;;;5099224;28;20279;-74
2022/12/10 11:33:35;;;;;;;8.23;7.43;;;0.70;99.90;;;;;;5103307;28;20293;-74
2022/12/10 11:36:10;;;;;;;8.50;7.70;;;0.80;99.90;;;;;;5093236;28;20280;-74
2022/12/10 11:38:47;;;;;;;8.20;7.40;;;0.80;99.90;;;;;;5093522;28;20194;-74
2022/12/10 11:41:24;;;;;;;8.67;7.87;;;0.80;99.90;;;;;;5086552;28;20278;-74
2022/12/10 11:44:17;;;;;;;8.20;7.50;;;0.80;99.90;;;;;;5086909;28;20623;-74
2022/12/10 11:47:01;;;;;;;10.33;7.57;;;0.80;99.90;;;;;;5086678;28;20301;-74
2022/12/10 11:49:39;;;;;;;9.00;8.10;;;0.80;99.90;;;;;;5087157;28;20198;-74
2022/12/10 11:52:14;;;;;;;8.53;7.63;;;0.80;99.90;;;;;;5106770;28;20205;-74
2022/12/10 11:54:57;;;;;;;8.40;7.60;;;0.90;99.90;;;;;;5106478;28;20194;-74
2022/12/10 11:57:31;;;;;;;9.53;7.93;;;0.90;99.90;;;;;;5100942;28;20759;-74
2022/12/10 12:00:05;;;;;;;8.33;7.63;;;0.90;99.90;;;;;;5106676;28;20314;-74
2022/12/10 12:02:51;;;;;;;8.50;7.70;;;0.90;99.90;;;;;;5095574;28;20210;-74
2022/12/10 12:05:46;;;;;;;7.63;6.97;;;0.90;99.90;;;;;;5086174;28;20207;-72
2022/12/10 12:08:23;;;;;;;8.27;7.50;;;0.80;99.90;;;;;;5092962;28;20229;-74
2022/12/10 12:11:10;;;;;;;9.43;8.53;;;0.80;99.90;;;;;;5086135;28;20218;-75
2022/12/10 12:13:42;;;;;;;9.33;8.43;;;0.80;99.90;;;;;;5086141;28;20199;-73
2022/12/10 12:16:15;;;;;;;9.93;8.03;;;0.80;99.90;;;;;;5094543;28;20326;-74
2022/12/10 12:18:52;;;;;;;7.87;7.17;;;0.80;99.90;;;;;;5099113;28;20212;-74
2022/12/10 12:21:20;;;;;;;8.03;7.30;;;0.80;99.90;;;;;;5095781;28;20308;-74
2022/12/10 12:23:51;;;;;;;8.30;7.50;;;0.80;99.90;;;;;;5104235;28;20251;-74
2022/12/10 12:26:24;;;;;;;10.37;7.90;;;0.80;99.90;;;;;;5097429;28;20195;-74
2022/12/10 12:28:55;;;;;;;8.13;7.43;;;0.80;99.90;;;;;;5087978;28;20199;-74
2022/12/10 12:31:32;;;;;;;7.93;7.23;;;0.80;99.90;;;;;;5104682;28;20233;-74
2022/12/10 12:34:03;;;;;;;8.33;7.53;;;0.80;99.90;;;;;;5085961;28;20195;-74
2022/12/10 12:36:33;;;;;;;8.60;7.60;;;0.80;99.90;;;;;;5086160;28;20287;-74
2022/12/10 12:39:13;;;;;;;8.70;7.80;;;0.80;99.90;;;;;;5098591;28;20197;-74
2022/12/10 12:41:47;;;;;;;8.70;7.83;;;0.80;99.90;;;;;;5106023;28;20322;-74
2022/12/10 12:44:22;;;;;;;8.37;7.67;;;0.80;99.90;;;;;;5106115;28;20273;-74
2022/12/10 12:46:52;;;;;;;8.50;7.70;;;0.80;99.90;;;;;;5095770;27;20233;-74
2022/12/10 12:49:26;;;;;;;9.07;8.17;;;0.80;99.90;;;;;;5103908;28;20213;-74
2022/12/10 12:51:59;;;;;;;9.13;7.87;;;0.80;99.90;;;;;;5096214;28;20295;-74
2022/12/10 12:54:26;;;;;;;9.33;8.37;;;0.70;99.90;;;;;;5086278;28;20638;-74
2022/12/10 12:57:04;;;;;;;9.37;8.33;;;0.80;99.90;;;;;;5087116;28;20297;-74
2022/12/10 12:59:50;;;;;;;8.77;7.77;;;0.70;99.90;;;;;;5086778;28;20850;-74
2022/12/10 13:02:39;;;;;;;10.20;7.67;;;0.70;99.90;;;;;;5087511;28;20223;-74
2022/12/10 13:05:13;;;;;;;8.07;7.37;;;0.70;99.90;;;;;;5090364;28;20302;-74
2022/12/10 13:07:39;;;;;;;8.63;6.87;;;0.70;99.90;;;;;;5099334;28;20292;-75
2022/12/10 13:10:27;;;;;;;9.07;7.27;;;0.70;99.90;;;;;;5100366;28;20198;-74
2022/12/10 13:13:23;;;;;;;8.73;7.87;;;0.70;99.90;;;;;;5101088;28;20195;-74
2022/12/10 13:15:50;;;;;;;9.13;8.23;;;0.70;99.90;;;;;;5103585;28;20653;-74
2022/12/10 13:18:40;;;;;;;7.87;7.17;;;0.70;99.90;;;;;;5093038;28;20292;-74